sensor_id;sensor_type;location;lat;lon;timestamp;temperature;humidity
6930;DHT22;3504;52.616;13.238;2022-07-12T00:03:23;14.68;71.87
6930;DHT22;3504;52.616;13.238;2022-07-12T00:08:25;14.58;71.94
6930;DHT22;3504;52.616;13.238;2022-07-12T00:13:26;14.53;71.18
6930;DHT22;3504;52.616;13.238;2022-07-12T00:18:28;14.50;71.78
6930;DHT22;3504;52.616;13.238;2022-07-12T00:23:28;14.40;71.54
6930;DHT22;3504;52.616;13.238;2022-07-12T00:28:33;14.26;72.01
6930;DHT22;3504;52.616;13.238;2022-07-12T00:33:33;14.20;72.55
6930;DHT22;3504;52.616;13.238;2022-07-12T00:38:35;14.10;73.04
6930;DHT22;3504;52.616;13.238;2022-07-12T00:43:35;14.00;73.28
6930;DHT22;3504;52.616;13.238;2022-07-12T00:48:37;13.96;73.30
6930;DHT22;3504;52.616;13.238;2022-07-12T00:53:38;13.87;73.33
6930;DHT22;3504;52.616;13.238;2022-07-12T00:58:41;13.85;72.68
6930;DHT22;3504;52.616;13.238;2022-07-12T01:03:42;13.79;72.85
6930;DHT22;3504;52.616;13.238;2022-07-12T01:08:43;13.72;73.36
6930;DHT22;3504;52.616;13.238;2022-07-12T01:13:47;13.63;73.72
6930;DHT22;3504;52.616;13.238;2022-07-12T01:18:52;13.55;73.77
6930;DHT22;3504;52.616;13.238;2022-07-12T01:23:52;13.49;73.82
6930;DHT22;3504;52.616;13.238;2022-07-12T01:28:55;13.44;73.85
6930;DHT22;3504;52.616;13.238;2022-07-12T01:33:56;13.36;75.12
6930;DHT22;3504;52.616;13.238;2022-07-12T01:38:58;13.28;74.49
6930;DHT22;3504;52.616;13.238;2022-07-12T01:43:59;13.27;73.93
6930;DHT22;3504;52.616;13.238;2022-07-12T01:49:02;13.20;74.08
6930;DHT22;3504;52.616;13.238;2022-07-12T01:54:02;13.14;74.44
6930;DHT22;3504;52.616;13.238;2022-07-12T01:59:04;13.11;74.01
6930;DHT22;3504;52.616;13.238;2022-07-12T02:04:05;13.06;74.04
6930;DHT22;3504;52.616;13.238;2022-07-12T02:09:06;13.03;74.25
6930;DHT22;3504;52.616;13.238;2022-07-12T02:14:07;12.94;74.52
6930;DHT22;3504;52.616;13.238;2022-07-12T02:19:12;12.87;74.53
6930;DHT22;3504;52.616;13.238;2022-07-12T02:24:13;12.83;74.25
6930;DHT22;3504;52.616;13.238;2022-07-12T02:29:14;12.74;74.86
6930;DHT22;3504;52.616;13.238;2022-07-12T02:34:15;12.70;74.69
6930;DHT22;3504;52.616;13.238;2022-07-12T02:39:17;12.63;74.73
6930;DHT22;3504;52.616;13.238;2022-07-12T02:44:17;12.60;73.94
6930;DHT22;3504;52.616;13.238;2022-07-12T02:49:19;12.57;74.47
6930;DHT22;3504;52.616;13.238;2022-07-12T02:54:20;12.53;74.53
6930;DHT22;3504;52.616;13.238;2022-07-12T02:59:21;12.48;75.24
6930;DHT22;3504;52.616;13.238;2022-07-12T03:04:22;12.42;74.94
6930;DHT22;3504;52.616;13.238;2022-07-12T03:09:24;12.35;75.79
6930;DHT22;3504;52.616;13.238;2022-07-12T03:14:24;12.32;76.11
6930;DHT22;3504;52.616;13.238;2022-07-12T03:19:26;12.30;76.10
6930;DHT22;3504;52.616;13.238;2022-07-12T03:24:26;12.28;75.96
6930;DHT22;3504;52.616;13.238;2022-07-12T03:29:28;12.25;75.56
6930;DHT22;3504;52.616;13.238;2022-07-12T03:34:28;12.28;75.95
6930;DHT22;3504;52.616;13.238;2022-07-12T03:39:30;12.28;75.22
6930;DHT22;3504;52.616;13.238;2022-07-12T03:44:31;12.28;76.06
6930;DHT22;3504;52.616;13.238;2022-07-12T03:49:32;12.22;77.16
6930;DHT22;3504;52.616;13.238;2022-07-12T03:54:33;12.22;76.64
6930;DHT22;3504;52.616;13.238;2022-07-12T03:59:34;12.25;76.38
6930;DHT22;3504;52.616;13.238;2022-07-12T04:04:35;12.30;76.33
6930;DHT22;3504;52.616;13.238;2022-07-12T04:09:37;12.33;77.12
6930;DHT22;3504;52.616;13.238;2022-07-12T04:14:37;12.33;77.44
6930;DHT22;3504;52.616;13.238;2022-07-12T04:19:39;12.38;77.91
6930;DHT22;3504;52.616;13.238;2022-07-12T04:24:39;12.45;76.70
6930;DHT22;3504;52.616;13.238;2022-07-12T04:29:41;12.53;76.93
6930;DHT22;3504;52.616;13.238;2022-07-12T04:34:41;12.60;77.47
6930;DHT22;3504;52.616;13.238;2022-07-12T04:39:43;12.67;76.61
6930;DHT22;3504;52.616;13.238;2022-07-12T04:44:43;12.77;76.87
6930;DHT22;3504;52.616;13.238;2022-07-12T04:49:45;12.83;76.58
6930;DHT22;3504;52.616;13.238;2022-07-12T04:54:47;12.99;76.60
6930;DHT22;3504;52.616;13.238;2022-07-12T04:59:48;13.11;76.05
6930;DHT22;3504;52.616;13.238;2022-07-12T05:04:49;13.30;75.81
6930;DHT22;3504;52.616;13.238;2022-07-12T05:09:50;13.46;75.68
6930;DHT22;3504;52.616;13.238;2022-07-12T05:14:51;13.66;75.42
6930;DHT22;3504;52.616;13.238;2022-07-12T05:19:53;13.90;74.50
6930;DHT22;3504;52.616;13.238;2022-07-12T05:24:53;14.06;73.82
6930;DHT22;3504;52.616;13.238;2022-07-12T05:29:55;14.23;74.86
6930;DHT22;3504;52.616;13.238;2022-07-12T05:34:56;14.44;73.97
6930;DHT22;3504;52.616;13.238;2022-07-12T05:39:58;14.67;73.54
6930;DHT22;3504;52.616;13.238;2022-07-12T05:44:58;14.95;71.42
6930;DHT22;3504;52.616;13.238;2022-07-12T05:50:00;15.42;71.35
6930;DHT22;3504;52.616;13.238;2022-07-12T05:55:01;16.00;69.20
6930;DHT22;3504;52.616;13.238;2022-07-12T06:00:04;16.69;67.30
6930;DHT22;3504;52.616;13.238;2022-07-12T06:05:05;17.35;65.35
6930;DHT22;3504;52.616;13.238;2022-07-12T06:10:08;18.20;63.99
6930;DHT22;3504;52.616;13.238;2022-07-12T06:15:09;18.79;61.19
6930;DHT22;3504;52.616;13.238;2022-07-12T06:20:10;19.47;58.05
6930;DHT22;3504;52.616;13.238;2022-07-12T06:25:11;19.97;56.49
6930;DHT22;3504;52.616;13.238;2022-07-12T06:30:16;20.28;56.85
6930;DHT22;3504;52.616;13.238;2022-07-12T06:35:16;20.80;56.29
6930;DHT22;3504;52.616;13.238;2022-07-12T06:40:18;21.13;54.91
6930;DHT22;3504;52.616;13.238;2022-07-12T06:45:18;21.48;52.43
6930;DHT22;3504;52.616;13.238;2022-07-12T06:50:20;21.82;53.30
6930;DHT22;3504;52.616;13.238;2022-07-12T06:55:21;21.98;50.13
6930;DHT22;3504;52.616;13.238;2022-07-12T07:00:23;22.05;49.08
6930;DHT22;3504;52.616;13.238;2022-07-12T07:05:24;22.15;50.04
6930;DHT22;3504;52.616;13.238;2022-07-12T07:10:25;22.35;51.25
6930;DHT22;3504;52.616;13.238;2022-07-12T07:15:26;22.61;49.74
6930;DHT22;3504;52.616;13.238;2022-07-12T07:20:28;22.77;50.73
6930;DHT22;3504;52.616;13.238;2022-07-12T07:25:29;22.90;48.52
6930;DHT22;3504;52.616;13.238;2022-07-12T07:30:30;23.17;50.05
6930;DHT22;3504;52.616;13.238;2022-07-12T07:35:51;23.27;46.86
6930;DHT22;3504;52.616;13.238;2022-07-12T07:40:52;23.32;44.90
6930;DHT22;3504;52.616;13.238;2022-07-12T07:45:54;23.56;45.64
6930;DHT22;3504;52.616;13.238;2022-07-12T07:50:56;23.55;43.64
6930;DHT22;3504;52.616;13.238;2022-07-12T07:55:57;23.63;46.74
6930;DHT22;3504;52.616;13.238;2022-07-12T08:00:59;23.49;42.47
6930;DHT22;3504;52.616;13.238;2022-07-12T08:05:59;23.76;42.79
6930;DHT22;3504;52.616;13.238;2022-07-12T08:11:03;23.89;43.95
6930;DHT22;3504;52.616;13.238;2022-07-12T08:16:04;24.25;41.86
6930;DHT22;3504;52.616;13.238;2022-07-12T08:21:05;24.30;42.24
6930;DHT22;3504;52.616;13.238;2022-07-12T08:26:06;24.51;41.99
6930;DHT22;3504;52.616;13.238;2022-07-12T08:31:08;24.30;42.00
6930;DHT22;3504;52.616;13.238;2022-07-12T08:36:09;24.55;43.14
6930;DHT22;3504;52.616;13.238;2022-07-12T08:41:14;24.72;41.60
6930;DHT22;3504;52.616;13.238;2022-07-12T08:46:15;25.06;40.95
6930;DHT22;3504;52.616;13.238;2022-07-12T08:51:21;25.06;41.45
6930;DHT22;3504;52.616;13.238;2022-07-12T08:56:37;25.23;42.19
6930;DHT22;3504;52.616;13.238;2022-07-12T09:01:50;25.54;40.19
6930;DHT22;3504;52.616;13.238;2022-07-12T09:06:51;25.73;41.10
6930;DHT22;3504;52.616;13.238;2022-07-12T09:11:53;25.95;39.04
6930;DHT22;3504;52.616;13.238;2022-07-12T09:17:05;26.17;39.38
6930;DHT22;3504;52.616;13.238;2022-07-12T09:22:15;26.18;39.45
6930;DHT22;3504;52.616;13.238;2022-07-12T09:27:25;26.14;37.82
6930;DHT22;3504;52.616;13.238;2022-07-12T09:32:27;26.52;37.38
6930;DHT22;3504;52.616;13.238;2022-07-12T09:37:46;26.59;36.93
6930;DHT22;3504;52.616;13.238;2022-07-12T09:42:49;26.87;34.34
6930;DHT22;3504;52.616;13.238;2022-07-12T09:47:51;27.08;35.41
6930;DHT22;3504;52.616;13.238;2022-07-12T09:52:54;27.27;35.88
6930;DHT22;3504;52.616;13.238;2022-07-12T09:58:01;27.24;34.52
6930;DHT22;3504;52.616;13.238;2022-07-12T10:03:03;27.08;36.84
6930;DHT22;3504;52.616;13.238;2022-07-12T10:08:04;26.95;34.81
6930;DHT22;3504;52.616;13.238;2022-07-12T10:13:07;27.45;36.18
6930;DHT22;3504;52.616;13.238;2022-07-12T10:18:07;27.41;34.68
6930;DHT22;3504;52.616;13.238;2022-07-12T10:28:20;27.81;33.54
6930;DHT22;3504;52.616;13.238;2022-07-12T10:33:23;27.96;34.65
6930;DHT22;3504;52.616;13.238;2022-07-12T10:38:24;27.95;33.36
6930;DHT22;3504;52.616;13.238;2022-07-12T10:43:29;27.86;33.11
6930;DHT22;3504;52.616;13.238;2022-07-12T10:48:48;27.92;34.33
6930;DHT22;3504;52.616;13.238;2022-07-12T10:53:50;27.40;34.84
6930;DHT22;3504;52.616;13.238;2022-07-12T10:58:53;27.02;36.31
6930;DHT22;3504;52.616;13.238;2022-07-12T11:04:07;27.47;36.02
6930;DHT22;3504;52.616;13.238;2022-07-12T11:09:11;27.72;35.00
6930;DHT22;3504;52.616;13.238;2022-07-12T11:14:25;27.90;35.29
6930;DHT22;3504;52.616;13.238;2022-07-12T11:19:28;27.78;35.97
6930;DHT22;3504;52.616;13.238;2022-07-12T11:24:32;27.51;34.00
6930;DHT22;3504;52.616;13.238;2022-07-12T11:29:33;28.23;35.86
6930;DHT22;3504;52.616;13.238;2022-07-12T11:34:34;28.64;33.43
6930;DHT22;3504;52.616;13.238;2022-07-12T11:39:38;28.51;33.27
6930;DHT22;3504;52.616;13.238;2022-07-12T11:44:50;27.90;34.57
6930;DHT22;3504;52.616;13.238;2022-07-12T11:49:54;27.88;35.67
6930;DHT22;3504;52.616;13.238;2022-07-12T11:54:56;28.57;34.07
6930;DHT22;3504;52.616;13.238;2022-07-12T11:59:57;28.28;34.93
6930;DHT22;3504;52.616;13.238;2022-07-12T12:04:59;28.19;33.93
6930;DHT22;3504;52.616;13.238;2022-07-12T12:15:17;28.13;33.80
6930;DHT22;3504;52.616;13.238;2022-07-12T12:20:21;27.89;35.03
6930;DHT22;3504;52.616;13.238;2022-07-12T12:25:25;28.23;35.12
6930;DHT22;3504;52.616;13.238;2022-07-12T12:30:29;28.54;35.46
6930;DHT22;3504;52.616;13.238;2022-07-12T12:35:37;28.56;33.70
6930;DHT22;3504;52.616;13.238;2022-07-12T12:40:39;28.10;34.85
6930;DHT22;3504;52.616;13.238;2022-07-12T12:45:55;28.30;34.39
6930;DHT22;3504;52.616;13.238;2022-07-12T12:51:11;28.60;33.59
6930;DHT22;3504;52.616;13.238;2022-07-12T12:56:14;28.78;34.71
6930;DHT22;3504;52.616;13.238;2022-07-12T13:01:14;28.28;33.45
6930;DHT22;3504;52.616;13.238;2022-07-12T13:06:16;27.67;34.93
6930;DHT22;3504;52.616;13.238;2022-07-12T13:11:17;27.44;36.25
6930;DHT22;3504;52.616;13.238;2022-07-12T13:16:22;27.77;35.56
6930;DHT22;3504;52.616;13.238;2022-07-12T13:21:23;28.23;35.71
6930;DHT22;3504;52.616;13.238;2022-07-12T13:26:25;27.99;34.96
6930;DHT22;3504;52.616;13.238;2022-07-12T13:31:26;27.84;35.22
6930;DHT22;3504;52.616;13.238;2022-07-12T13:36:28;27.93;36.93
6930;DHT22;3504;52.616;13.238;2022-07-12T13:41:28;28.32;33.99
6930;DHT22;3504;52.616;13.238;2022-07-12T13:46:30;28.50;34.55
6930;DHT22;3504;52.616;13.238;2022-07-12T13:51:31;28.74;33.56
6930;DHT22;3504;52.616;13.238;2022-07-12T13:56:33;28.63;34.82
6930;DHT22;3504;52.616;13.238;2022-07-12T14:01:33;28.69;34.95
6930;DHT22;3504;52.616;13.238;2022-07-12T14:06:35;28.78;34.34
6930;DHT22;3504;52.616;13.238;2022-07-12T14:11:36;28.94;33.72
6930;DHT22;3504;52.616;13.238;2022-07-12T14:16:36;28.90;32.75
6930;DHT22;3504;52.616;13.238;2022-07-12T14:21:37;28.47;34.69
6930;DHT22;3504;52.616;13.238;2022-07-12T14:26:38;28.63;33.86
6930;DHT22;3504;52.616;13.238;2022-07-12T14:31:39;28.94;33.10
6930;DHT22;3504;52.616;13.238;2022-07-12T14:36:41;28.87;32.49
6930;DHT22;3504;52.616;13.238;2022-07-12T14:41:41;28.69;32.96
6930;DHT22;3504;52.616;13.238;2022-07-12T14:46:43;28.57;34.57
6930;DHT22;3504;52.616;13.238;2022-07-12T14:51:43;28.67;34.76
6930;DHT22;3504;52.616;13.238;2022-07-12T14:56:45;28.66;33.83
6930;DHT22;3504;52.616;13.238;2022-07-12T15:01:49;28.50;33.69
6930;DHT22;3504;52.616;13.238;2022-07-12T15:06:51;28.54;33.97
6930;DHT22;3504;52.616;13.238;2022-07-12T15:11:52;28.63;34.68
6930;DHT22;3504;52.616;13.238;2022-07-12T15:16:52;28.50;34.63
6930;DHT22;3504;52.616;13.238;2022-07-12T15:21:53;28.49;34.31
6930;DHT22;3504;52.616;13.238;2022-07-12T15:26:57;28.41;33.52
6930;DHT22;3504;52.616;13.238;2022-07-12T15:31:58;27.81;34.74
6930;DHT22;3504;52.616;13.238;2022-07-12T15:36:59;27.58;34.92
6930;DHT22;3504;52.616;13.238;2022-07-12T15:42:00;27.67;34.93
6930;DHT22;3504;52.616;13.238;2022-07-12T15:47:02;27.92;35.51
6930;DHT22;3504;52.616;13.238;2022-07-12T15:52:04;27.92;34.48
6930;DHT22;3504;52.616;13.238;2022-07-12T15:57:24;27.99;35.53
6930;DHT22;3504;52.616;13.238;2022-07-12T16:02:25;28.05;36.42
6930;DHT22;3504;52.616;13.238;2022-07-12T16:07:27;28.08;35.29
6930;DHT22;3504;52.616;13.238;2022-07-12T16:12:27;28.15;34.75
6930;DHT22;3504;52.616;13.238;2022-07-12T16:17:30;27.99;35.18
6930;DHT22;3504;52.616;13.238;2022-07-12T16:22:30;27.82;34.51
6930;DHT22;3504;52.616;13.238;2022-07-12T16:27:32;27.68;35.55
6930;DHT22;3504;52.616;13.238;2022-07-12T16:32:34;27.64;35.81
6930;DHT22;3504;52.616;13.238;2022-07-12T16:37:37;27.59;37.63
6930;DHT22;3504;52.616;13.238;2022-07-12T16:42:37;27.59;36.64
6930;DHT22;3504;52.616;13.238;2022-07-12T16:47:39;27.59;36.11
6930;DHT22;3504;52.616;13.238;2022-07-12T16:52:40;27.41;35.45
6930;DHT22;3504;52.616;13.238;2022-07-12T16:57:41;27.20;36.56
6930;DHT22;3504;52.616;13.238;2022-07-12T17:02:42;27.14;35.68
6930;DHT22;3504;52.616;13.238;2022-07-12T17:07:44;27.06;37.36
6930;DHT22;3504;52.616;13.238;2022-07-12T17:12:44;26.99;36.31
6930;DHT22;3504;52.616;13.238;2022-07-12T17:17:46;26.93;36.68
6930;DHT22;3504;52.616;13.238;2022-07-12T17:22:47;26.87;36.92
6930;DHT22;3504;52.616;13.238;2022-07-12T17:27:48;26.73;37.24
6930;DHT22;3504;52.616;13.238;2022-07-12T17:32:49;26.60;35.79
6930;DHT22;3504;52.616;13.238;2022-07-12T17:37:51;26.42;36.45
6930;DHT22;3504;52.616;13.238;2022-07-12T17:42:51;26.22;36.09
6930;DHT22;3504;52.616;13.238;2022-07-12T17:47:54;26.05;35.42
6930;DHT22;3504;52.616;13.238;2022-07-12T17:52:55;25.95;36.40
6930;DHT22;3504;52.616;13.238;2022-07-12T17:57:56;25.81;36.32
6930;DHT22;3504;52.616;13.238;2022-07-12T18:03:16;25.66;36.63
6930;DHT22;3504;52.616;13.238;2022-07-12T18:08:18;25.56;37.46
6930;DHT22;3504;52.616;13.238;2022-07-12T18:13:18;25.42;37.60
6930;DHT22;3504;52.616;13.238;2022-07-12T18:18:38;25.32;38.39
6930;DHT22;3504;52.616;13.238;2022-07-12T18:23:39;25.23;38.13
6930;DHT22;3504;52.616;13.238;2022-07-12T18:28:44;25.12;38.85
6930;DHT22;3504;52.616;13.238;2022-07-12T18:33:44;25.02;38.82
6930;DHT22;3504;52.616;13.238;2022-07-12T18:38:46;24.85;39.74
6930;DHT22;3504;52.616;13.238;2022-07-12T18:43:47;24.73;40.03
6930;DHT22;3504;52.616;13.238;2022-07-12T18:48:49;24.60;39.95
6930;DHT22;3504;52.616;13.238;2022-07-12T18:53:49;24.47;40.72
6930;DHT22;3504;52.616;13.238;2022-07-12T18:58:54;24.33;41.66
6930;DHT22;3504;52.616;13.238;2022-07-12T19:03:55;24.20;41.09
6930;DHT22;3504;52.616;13.238;2022-07-12T19:08:57;24.03;41.45
6930;DHT22;3504;52.616;13.238;2022-07-12T19:13:57;23.86;41.36
6930;DHT22;3504;52.616;13.238;2022-07-12T19:19:00;23.73;42.35
6930;DHT22;3504;52.616;13.238;2022-07-12T19:24:04;23.49;42.18
6930;DHT22;3504;52.616;13.238;2022-07-12T19:29:06;23.37;42.86
6930;DHT22;3504;52.616;13.238;2022-07-12T19:34:09;23.17;43.49
6930;DHT22;3504;52.616;13.238;2022-07-12T19:39:11;23.04;43.54
6930;DHT22;3504;52.616;13.238;2022-07-12T19:44:11;22.90;44.49
6930;DHT22;3504;52.616;13.238;2022-07-12T19:49:13;22.76;44.07
6930;DHT22;3504;52.616;13.238;2022-07-12T19:54:14;22.61;44.51
6930;DHT22;3504;52.616;13.238;2022-07-12T19:59:15;22.49;45.83
6930;DHT22;3504;52.616;13.238;2022-07-12T20:04:16;22.26;45.65
6930;DHT22;3504;52.616;13.238;2022-07-12T20:09:17;22.09;46.15
6930;DHT22;3504;52.616;13.238;2022-07-12T20:14:18;21.95;46.95
6930;DHT22;3504;52.616;13.238;2022-07-12T20:19:20;21.76;47.82
6930;DHT22;3504;52.616;13.238;2022-07-12T20:24:21;21.62;49.95
6930;DHT22;3504;52.616;13.238;2022-07-12T20:29:23;21.47;50.25
6930;DHT22;3504;52.616;13.238;2022-07-12T20:34:23;21.33;50.29
6930;DHT22;3504;52.616;13.238;2022-07-12T20:39:29;21.14;50.72
6930;DHT22;3504;52.616;13.238;2022-07-12T20:44:30;20.97;52.16
6930;DHT22;3504;52.616;13.238;2022-07-12T20:49:32;20.86;52.39
6930;DHT22;3504;52.616;13.238;2022-07-12T20:54:33;20.73;52.96
6930;DHT22;3504;52.616;13.238;2022-07-12T20:59:35;20.59;53.37
6930;DHT22;3504;52.616;13.238;2022-07-12T21:04:36;20.43;53.84
6930;DHT22;3504;52.616;13.238;2022-07-12T21:09:37;20.31;55.28
6930;DHT22;3504;52.616;13.238;2022-07-12T21:14:38;20.14;55.87
6930;DHT22;3504;52.616;13.238;2022-07-12T21:19:41;20.01;56.73
6930;DHT22;3504;52.616;13.238;2022-07-12T21:24:42;19.85;56.64
6930;DHT22;3504;52.616;13.238;2022-07-12T21:29:43;19.71;56.99
6930;DHT22;3504;52.616;13.238;2022-07-12T21:34:44;19.60;57.18
6930;DHT22;3504;52.616;13.238;2022-07-12T21:39:46;19.45;58.79
6930;DHT22;3504;52.616;13.238;2022-07-12T21:44:46;19.29;58.37
6930;DHT22;3504;52.616;13.238;2022-07-12T21:49:48;19.28;57.99
6930;DHT22;3504;52.616;13.238;2022-07-12T21:54:49;19.20;58.27
6930;DHT22;3504;52.616;13.238;2022-07-12T21:59:51;19.16;58.74
6930;DHT22;3504;52.616;13.238;2022-07-12T22:04:52;19.09;59.29
6930;DHT22;3504;52.616;13.238;2022-07-12T22:09:53;18.94;60.36
6930;DHT22;3504;52.616;13.238;2022-07-12T22:14:54;18.74;60.90
6930;DHT22;3504;52.616;13.238;2022-07-12T22:19:55;18.67;60.99
6930;DHT22;3504;52.616;13.238;2022-07-12T22:24:56;18.53;60.92
6930;DHT22;3504;52.616;13.238;2022-07-12T22:29:58;18.40;62.55
6930;DHT22;3504;52.616;13.238;2022-07-12T22:34:59;18.31;61.82
6930;DHT22;3504;52.616;13.238;2022-07-12T22:40:01;18.23;62.90
6930;DHT22;3504;52.616;13.238;2022-07-12T22:45:04;18.09;63.36
6930;DHT22;3504;52.616;13.238;2022-07-12T22:50:06;17.92;64.29
6930;DHT22;3504;52.616;13.238;2022-07-12T22:55:07;17.85;64.27
6930;DHT22;3504;52.616;13.238;2022-07-12T23:00:10;17.81;64.62
6930;DHT22;3504;52.616;13.238;2022-07-12T23:05:11;17.72;64.58
6930;DHT22;3504;52.616;13.238;2022-07-12T23:10:12;17.61;65.92
6930;DHT22;3504;52.616;13.238;2022-07-12T23:15:13;17.42;65.75
6930;DHT22;3504;52.616;13.238;2022-07-12T23:20:15;17.35;66.72
6930;DHT22;3504;52.616;13.238;2022-07-12T23:25:15;17.28;66.80
6930;DHT22;3504;52.616;13.238;2022-07-12T23:30:17;17.18;66.97
6930;DHT22;3504;52.616;13.238;2022-07-12T23:35:17;17.10;67.05
6930;DHT22;3504;52.616;13.238;2022-07-12T23:40:20;16.94;67.78
6930;DHT22;3504;52.616;13.238;2022-07-12T23:45:20;16.87;66.93
6930;DHT22;3504;52.616;13.238;2022-07-12T23:50:22;16.84;68.20
6930;DHT22;3504;52.616;13.238;2022-07-12T23:55:23;16.77;67.32
